sensor_id;sensor_type;location;lat;lon;timestamp;P1;durP1;ratioP1;P2;durP2;ratioP2
22525;SDS011;11429;50.842;4.386;2022-08-01T00:01:05;3.67;;;1.58;;
22525;SDS011;11429;50.842;4.386;2022-08-01T00:03:30;5.07;;;1.80;;
22525;SDS011;11429;50.842;4.386;2022-08-01T00:05:56;5.68;;;1.92;;
22525;SDS011;11429;50.842;4.386;2022-08-01T00:08:22;3.75;;;1.50;;
22525;SDS011;11429;50.842;4.386;2022-08-01T00:10:47;3.40;;;1.63;;
22525;SDS011;11429;50.842;4.386;2022-08-01T00:13:13;5.85;;;1.95;;
22525;SDS011;11429;50.842;4.386;2022-08-01T00:15:38;3.15;;;1.90;;
22525;SDS011;11429;50.842;4.386;2022-08-01T00:18:04;4.70;;;1.88;;
22525;SDS011;11429;50.842;4.386;2022-08-01T00:20:30;3.35;;;2.03;;
22525;SDS011;11429;50.842;4.386;2022-08-01T00:22:55;6.18;;;2.42;;
22525;SDS011;11429;50.842;4.386;2022-08-01T00:25:21;7.15;;;3.03;;
22525;SDS011;11429;50.842;4.386;2022-08-01T00:27:47;5.90;;;2.47;;
22525;SDS011;11429;50.842;4.386;2022-08-01T00:30:12;7.10;;;2.50;;
22525;SDS011;11429;50.842;4.386;2022-08-01T00:32:38;4.93;;;2.17;;
22525;SDS011;11429;50.842;4.386;2022-08-01T00:35:04;9.48;;;2.72;;
22525;SDS011;11429;50.842;4.386;2022-08-01T00:37:30;7.07;;;2.75;;
22525;SDS011;11429;50.842;4.386;2022-08-01T00:39:55;6.75;;;3.25;;
22525;SDS011;11429;50.842;4.386;2022-08-01T00:42:21;8.05;;;3.42;;
22525;SDS011;11429;50.842;4.386;2022-08-01T00:44:47;8.85;;;3.60;;
22525;SDS011;11429;50.842;4.386;2022-08-01T00:47:13;8.50;;;3.17;;
22525;SDS011;11429;50.842;4.386;2022-08-01T00:49:38;6.03;;;2.97;;
22525;SDS011;11429;50.842;4.386;2022-08-01T00:52:04;9.77;;;3.70;;
22525;SDS011;11429;50.842;4.386;2022-08-01T00:54:31;6.22;;;2.80;;
22525;SDS011;11429;50.842;4.386;2022-08-01T00:56:57;9.35;;;3.20;;
22525;SDS011;11429;50.842;4.386;2022-08-01T00:59:23;8.10;;;3.35;;
22525;SDS011;11429;50.842;4.386;2022-08-01T01:01:50;7.70;;;3.35;;
22525;SDS011;11429;50.842;4.386;2022-08-01T01:04:16;8.57;;;3.30;;
22525;SDS011;11429;50.842;4.386;2022-08-01T01:12:18;12.35;;;3.30;;
22525;SDS011;11429;50.842;4.386;2022-08-01T01:14:58;7.72;;;3.20;;
22525;SDS011;11429;50.842;4.386;2022-08-01T01:17:27;6.22;;;2.83;;
22525;SDS011;11429;50.842;4.386;2022-08-01T01:19:59;6.18;;;2.72;;
22525;SDS011;11429;50.842;4.386;2022-08-01T01:22:36;6.45;;;2.92;;
22525;SDS011;11429;50.842;4.386;2022-08-01T01:25:51;10.02;;;2.95;;
22525;SDS011;11429;50.842;4.386;2022-08-01T01:28:34;5.95;;;2.90;;
22525;SDS011;11429;50.842;4.386;2022-08-01T01:31:08;8.32;;;3.67;;
22525;SDS011;11429;50.842;4.386;2022-08-01T01:33:36;5.75;;;3.22;;
22525;SDS011;11429;50.842;4.386;2022-08-01T01:36:05;8.13;;;3.40;;
22525;SDS011;11429;50.842;4.386;2022-08-01T01:38:36;6.72;;;3.70;;
22525;SDS011;11429;50.842;4.386;2022-08-01T01:41:07;7.15;;;5.65;;
22525;SDS011;11429;50.842;4.386;2022-08-01T01:43:34;11.20;;;5.93;;
22525;SDS011;11429;50.842;4.386;2022-08-01T01:46:02;11.95;;;5.70;;
22525;SDS011;11429;50.842;4.386;2022-08-01T01:48:29;14.35;;;7.20;;
22525;SDS011;11429;50.842;4.386;2022-08-01T01:50:56;11.63;;;6.97;;
22525;SDS011;11429;50.842;4.386;2022-08-01T01:53:22;13.45;;;7.40;;
22525;SDS011;11429;50.842;4.386;2022-08-01T01:55:50;15.48;;;7.28;;
22525;SDS011;11429;50.842;4.386;2022-08-01T01:58:17;12.85;;;7.63;;
22525;SDS011;11429;50.842;4.386;2022-08-01T02:00:45;15.35;;;7.35;;
22525;SDS011;11429;50.842;4.386;2022-08-01T02:03:13;13.13;;;8.00;;
22525;SDS011;11429;50.842;4.386;2022-08-01T02:05:41;15.35;;;8.75;;
22525;SDS011;11429;50.842;4.386;2022-08-01T02:08:08;13.88;;;8.80;;
22525;SDS011;11429;50.842;4.386;2022-08-01T02:10:36;14.02;;;8.93;;
22525;SDS011;11429;50.842;4.386;2022-08-01T02:13:03;15.27;;;8.68;;
22525;SDS011;11429;50.842;4.386;2022-08-01T02:15:31;15.63;;;7.72;;
22525;SDS011;11429;50.842;4.386;2022-08-01T02:17:59;10.57;;;6.93;;
22525;SDS011;11429;50.842;4.386;2022-08-01T02:20:27;15.27;;;7.38;;
22525;SDS011;11429;50.842;4.386;2022-08-01T02:23:13;12.60;;;7.07;;
22525;SDS011;11429;50.842;4.386;2022-08-01T02:25:42;14.90;;;7.65;;
22525;SDS011;11429;50.842;4.386;2022-08-01T02:28:24;13.63;;;7.88;;
22525;SDS011;11429;50.842;4.386;2022-08-01T02:30:54;14.55;;;7.88;;
22525;SDS011;11429;50.842;4.386;2022-08-01T02:33:27;15.68;;;7.22;;
22525;SDS011;11429;50.842;4.386;2022-08-01T02:36:01;14.52;;;8.57;;
22525;SDS011;11429;50.842;4.386;2022-08-01T02:38:28;12.98;;;7.78;;
22525;SDS011;11429;50.842;4.386;2022-08-01T02:40:57;14.48;;;8.27;;
22525;SDS011;11429;50.842;4.386;2022-08-01T02:43:27;15.02;;;8.38;;
22525;SDS011;11429;50.842;4.386;2022-08-01T02:45:56;16.90;;;9.35;;
22525;SDS011;11429;50.842;4.386;2022-08-01T02:48:26;17.55;;;8.73;;
22525;SDS011;11429;50.842;4.386;2022-08-01T02:50:54;18.20;;;10.57;;
22525;SDS011;11429;50.842;4.386;2022-08-01T02:53:23;18.20;;;8.88;;
22525;SDS011;11429;50.842;4.386;2022-08-01T02:55:52;17.52;;;10.02;;
22525;SDS011;11429;50.842;4.386;2022-08-01T02:58:20;17.65;;;9.65;;
22525;SDS011;11429;50.842;4.386;2022-08-01T03:00:48;17.92;;;9.75;;
22525;SDS011;11429;50.842;4.386;2022-08-01T03:03:15;16.05;;;10.02;;
22525;SDS011;11429;50.842;4.386;2022-08-01T03:05:41;18.88;;;9.88;;
22525;SDS011;11429;50.842;4.386;2022-08-01T03:08:08;19.05;;;10.25;;
22525;SDS011;11429;50.842;4.386;2022-08-01T03:10:36;22.10;;;10.82;;
22525;SDS011;11429;50.842;4.386;2022-08-01T03:13:05;19.88;;;10.27;;
22525;SDS011;11429;50.842;4.386;2022-08-01T03:15:34;19.40;;;9.63;;
22525;SDS011;11429;50.842;4.386;2022-08-01T03:18:02;15.85;;;8.82;;
22525;SDS011;11429;50.842;4.386;2022-08-01T03:20:32;17.55;;;9.20;;
22525;SDS011;11429;50.842;4.386;2022-08-01T03:23:03;12.68;;;8.15;;
22525;SDS011;11429;50.842;4.386;2022-08-01T03:25:31;17.20;;;9.85;;
22525;SDS011;11429;50.842;4.386;2022-08-01T03:27:59;16.00;;;8.70;;
22525;SDS011;11429;50.842;4.386;2022-08-01T03:30:28;17.83;;;9.32;;
22525;SDS011;11429;50.842;4.386;2022-08-01T03:32:56;16.50;;;9.38;;
22525;SDS011;11429;50.842;4.386;2022-08-01T03:35:22;19.25;;;10.30;;
22525;SDS011;11429;50.842;4.386;2022-08-01T03:37:52;16.15;;;9.60;;
22525;SDS011;11429;50.842;4.386;2022-08-01T03:40:22;17.27;;;8.82;;
22525;SDS011;11429;50.842;4.386;2022-08-01T03:42:52;20.60;;;10.02;;
22525;SDS011;11429;50.842;4.386;2022-08-01T03:45:22;19.40;;;11.68;;
22525;SDS011;11429;50.842;4.386;2022-08-01T03:47:52;22.85;;;11.45;;
22525;SDS011;11429;50.842;4.386;2022-08-01T03:50:24;20.67;;;11.52;;
22525;SDS011;11429;50.842;4.386;2022-08-01T03:52:51;22.63;;;11.13;;
22525;SDS011;11429;50.842;4.386;2022-08-01T03:55:22;17.23;;;11.20;;
22525;SDS011;11429;50.842;4.386;2022-08-01T03:57:49;18.08;;;11.63;;
22525;SDS011;11429;50.842;4.386;2022-08-01T04:00:16;18.45;;;12.30;;
22525;SDS011;11429;50.842;4.386;2022-08-01T04:02:44;17.27;;;11.90;;
22525;SDS011;11429;50.842;4.386;2022-08-01T04:05:14;16.52;;;11.93;;
22525;SDS011;11429;50.842;4.386;2022-08-01T04:07:41;18.60;;;12.13;;
22525;SDS011;11429;50.842;4.386;2022-08-01T04:10:11;20.70;;;13.57;;
22525;SDS011;11429;50.842;4.386;2022-08-01T04:12:37;25.30;;;14.25;;
22525;SDS011;11429;50.842;4.386;2022-08-01T04:15:03;18.92;;;13.52;;
22525;SDS011;11429;50.842;4.386;2022-08-01T04:17:30;27.20;;;14.88;;
22525;SDS011;11429;50.842;4.386;2022-08-01T04:19:56;18.85;;;13.68;;
22525;SDS011;11429;50.842;4.386;2022-08-01T04:22:22;18.23;;;13.20;;
22525;SDS011;11429;50.842;4.386;2022-08-01T04:24:48;18.88;;;12.93;;
22525;SDS011;11429;50.842;4.386;2022-08-01T04:27:19;18.13;;;12.95;;
22525;SDS011;11429;50.842;4.386;2022-08-01T04:29:53;22.75;;;13.57;;
22525;SDS011;11429;50.842;4.386;2022-08-01T04:32:23;16.73;;;11.73;;
22525;SDS011;11429;50.842;4.386;2022-08-01T04:34:52;20.98;;;12.75;;
22525;SDS011;11429;50.842;4.386;2022-08-01T04:37:20;14.52;;;12.25;;
22525;SDS011;11429;50.842;4.386;2022-08-01T04:39:48;16.80;;;12.27;;
22525;SDS011;11429;50.842;4.386;2022-08-01T04:42:16;17.15;;;12.57;;
22525;SDS011;11429;50.842;4.386;2022-08-01T04:44:42;16.25;;;12.82;;
22525;SDS011;11429;50.842;4.386;2022-08-01T04:47:08;17.98;;;12.80;;
22525;SDS011;11429;50.842;4.386;2022-08-01T04:49:34;24.65;;;17.23;;
22525;SDS011;11429;50.842;4.386;2022-08-01T04:52:01;26.75;;;18.85;;
22525;SDS011;11429;50.842;4.386;2022-08-01T04:54:27;28.75;;;19.58;;
22525;SDS011;11429;50.842;4.386;2022-08-01T04:56:54;28.05;;;18.60;;
22525;SDS011;11429;50.842;4.386;2022-08-01T04:59:25;25.27;;;17.67;;
22525;SDS011;11429;50.842;4.386;2022-08-01T05:02:04;21.48;;;17.42;;
22525;SDS011;11429;50.842;4.386;2022-08-01T05:04:30;20.13;;;16.75;;
22525;SDS011;11429;50.842;4.386;2022-08-01T05:06:56;21.13;;;15.90;;
22525;SDS011;11429;50.842;4.386;2022-08-01T05:09:21;47.50;;;18.17;;
22525;SDS011;11429;50.842;4.386;2022-08-01T05:11:47;21.10;;;15.23;;
22525;SDS011;11429;50.842;4.386;2022-08-01T05:14:13;21.77;;;14.75;;
22525;SDS011;11429;50.842;4.386;2022-08-01T05:16:38;19.30;;;14.32;;
22525;SDS011;11429;50.842;4.386;2022-08-01T05:19:04;18.00;;;15.02;;
22525;SDS011;11429;50.842;4.386;2022-08-01T05:21:29;18.13;;;14.38;;
22525;SDS011;11429;50.842;4.386;2022-08-01T05:23:55;22.90;;;14.95;;
22525;SDS011;11429;50.842;4.386;2022-08-01T05:26:21;18.33;;;14.13;;
22525;SDS011;11429;50.842;4.386;2022-08-01T05:28:47;20.27;;;14.23;;
22525;SDS011;11429;50.842;4.386;2022-08-01T05:31:13;18.75;;;13.75;;
22525;SDS011;11429;50.842;4.386;2022-08-01T05:33:39;20.48;;;14.07;;
22525;SDS011;11429;50.842;4.386;2022-08-01T05:36:04;16.55;;;13.32;;
22525;SDS011;11429;50.842;4.386;2022-08-01T05:38:30;21.05;;;13.93;;
22525;SDS011;11429;50.842;4.386;2022-08-01T05:40:56;20.92;;;12.98;;
22525;SDS011;11429;50.842;4.386;2022-08-01T05:43:21;17.83;;;11.73;;
22525;SDS011;11429;50.842;4.386;2022-08-01T05:45:47;17.88;;;12.10;;
22525;SDS011;11429;50.842;4.386;2022-08-01T05:48:13;16.00;;;12.02;;
22525;SDS011;11429;50.842;4.386;2022-08-01T05:50:38;18.73;;;12.55;;
22525;SDS011;11429;50.842;4.386;2022-08-01T05:53:04;14.27;;;11.32;;
22525;SDS011;11429;50.842;4.386;2022-08-01T05:55:30;14.98;;;11.45;;
22525;SDS011;11429;50.842;4.386;2022-08-01T05:57:55;20.02;;;11.40;;
22525;SDS011;11429;50.842;4.386;2022-08-01T06:00:21;15.73;;;9.57;;
22525;SDS011;11429;50.842;4.386;2022-08-01T06:02:47;15.07;;;9.93;;
22525;SDS011;11429;50.842;4.386;2022-08-01T06:05:12;14.60;;;9.65;;
22525;SDS011;11429;50.842;4.386;2022-08-01T06:07:38;12.05;;;9.43;;
22525;SDS011;11429;50.842;4.386;2022-08-01T06:10:05;11.25;;;9.60;;
22525;SDS011;11429;50.842;4.386;2022-08-01T06:12:34;10.57;;;8.65;;
22525;SDS011;11429;50.842;4.386;2022-08-01T06:15:00;13.52;;;9.60;;
22525;SDS011;11429;50.842;4.386;2022-08-01T06:17:27;15.30;;;10.10;;
22525;SDS011;11429;50.842;4.386;2022-08-01T06:19:52;31.83;;;9.68;;
22525;SDS011;11429;50.842;4.386;2022-08-01T06:22:18;20.00;;;9.93;;
22525;SDS011;11429;50.842;4.386;2022-08-01T06:24:44;11.75;;;8.00;;
22525;SDS011;11429;50.842;4.386;2022-08-01T06:27:09;35.90;;;9.25;;
22525;SDS011;11429;50.842;4.386;2022-08-01T06:29:35;17.98;;;8.15;;
22525;SDS011;11429;50.842;4.386;2022-08-01T06:32:00;13.38;;;7.88;;
22525;SDS011;11429;50.842;4.386;2022-08-01T06:34:26;10.50;;;7.07;;
22525;SDS011;11429;50.842;4.386;2022-08-01T06:36:52;11.07;;;7.13;;
22525;SDS011;11429;50.842;4.386;2022-08-01T06:39:18;55.22;;;11.15;;
22525;SDS011;11429;50.842;4.386;2022-08-01T06:41:43;19.60;;;7.35;;
22525;SDS011;11429;50.842;4.386;2022-08-01T06:44:11;11.88;;;7.65;;
22525;SDS011;11429;50.842;4.386;2022-08-01T06:46:38;10.27;;;7.13;;
22525;SDS011;11429;50.842;4.386;2022-08-01T06:49:03;9.65;;;5.70;;
22525;SDS011;11429;50.842;4.386;2022-08-01T06:51:29;8.48;;;4.80;;
22525;SDS011;11429;50.842;4.386;2022-08-01T06:53:55;8.45;;;5.53;;
22525;SDS011;11429;50.842;4.386;2022-08-01T06:56:21;9.15;;;5.20;;
22525;SDS011;11429;50.842;4.386;2022-08-01T06:58:47;7.18;;;4.70;;
22525;SDS011;11429;50.842;4.386;2022-08-01T07:01:13;12.18;;;5.70;;
22525;SDS011;11429;50.842;4.386;2022-08-01T07:03:39;7.85;;;5.57;;
22525;SDS011;11429;50.842;4.386;2022-08-01T07:06:05;10.98;;;6.10;;
22525;SDS011;11429;50.842;4.386;2022-08-01T07:08:31;7.68;;;4.78;;
22525;SDS011;11429;50.842;4.386;2022-08-01T07:10:56;11.27;;;5.38;;
22525;SDS011;11429;50.842;4.386;2022-08-01T07:13:25;5.95;;;4.45;;
22525;SDS011;11429;50.842;4.386;2022-08-01T07:15:55;7.07;;;5.00;;
22525;SDS011;11429;50.842;4.386;2022-08-01T07:18:21;6.60;;;4.05;;
22525;SDS011;11429;50.842;4.386;2022-08-01T07:20:48;8.35;;;6.50;;
22525;SDS011;11429;50.842;4.386;2022-08-01T07:23:14;7.40;;;3.85;;
22525;SDS011;11429;50.842;4.386;2022-08-01T07:25:40;4.68;;;3.45;;
22525;SDS011;11429;50.842;4.386;2022-08-01T07:28:07;8.55;;;3.95;;
22525;SDS011;11429;50.842;4.386;2022-08-01T07:30:32;8.13;;;4.10;;
22525;SDS011;11429;50.842;4.386;2022-08-01T07:32:58;17.30;;;9.57;;
22525;SDS011;11429;50.842;4.386;2022-08-01T07:35:24;7.45;;;4.28;;
22525;SDS011;11429;50.842;4.386;2022-08-01T07:37:50;5.95;;;4.78;;
22525;SDS011;11429;50.842;4.386;2022-08-01T07:40:18;6.55;;;4.70;;
22525;SDS011;11429;50.842;4.386;2022-08-01T07:42:44;5.75;;;3.80;;
22525;SDS011;11429;50.842;4.386;2022-08-01T07:45:11;5.88;;;4.70;;
22525;SDS011;11429;50.842;4.386;2022-08-01T07:47:37;7.38;;;4.10;;
22525;SDS011;11429;50.842;4.386;2022-08-01T07:50:03;7.95;;;4.10;;
22525;SDS011;11429;50.842;4.386;2022-08-01T07:52:30;5.35;;;4.78;;
22525;SDS011;11429;50.842;4.386;2022-08-01T07:54:57;7.90;;;5.07;;
22525;SDS011;11429;50.842;4.386;2022-08-01T07:57:24;9.80;;;4.57;;
22525;SDS011;11429;50.842;4.386;2022-08-01T07:59:50;7.68;;;5.07;;
22525;SDS011;11429;50.842;4.386;2022-08-01T08:02:16;7.70;;;5.00;;
22525;SDS011;11429;50.842;4.386;2022-08-01T08:04:42;5.78;;;4.60;;
22525;SDS011;11429;50.842;4.386;2022-08-01T08:07:08;4.63;;;4.20;;
22525;SDS011;11429;50.842;4.386;2022-08-01T08:09:34;6.43;;;4.20;;
22525;SDS011;11429;50.842;4.386;2022-08-01T08:11:59;7.00;;;4.38;;
22525;SDS011;11429;50.842;4.386;2022-08-01T08:14:25;7.43;;;3.78;;
22525;SDS011;11429;50.842;4.386;2022-08-01T08:16:51;5.25;;;3.38;;
22525;SDS011;11429;50.842;4.386;2022-08-01T08:19:17;3.17;;;2.60;;
22525;SDS011;11429;50.842;4.386;2022-08-01T08:21:43;4.57;;;2.55;;
22525;SDS011;11429;50.842;4.386;2022-08-01T08:24:09;2.30;;;1.90;;
22525;SDS011;11429;50.842;4.386;2022-08-01T08:26:44;4.80;;;2.00;;
22525;SDS011;11429;50.842;4.386;2022-08-01T08:29:12;5.30;;;2.20;;
22525;SDS011;11429;50.842;4.386;2022-08-01T08:31:38;4.47;;;2.20;;
22525;SDS011;11429;50.842;4.386;2022-08-01T08:34:04;4.95;;;1.98;;
22525;SDS011;11429;50.842;4.386;2022-08-01T08:36:29;6.22;;;2.00;;
22525;SDS011;11429;50.842;4.386;2022-08-01T08:38:55;4.30;;;1.67;;
22525;SDS011;11429;50.842;4.386;2022-08-01T08:41:24;3.75;;;1.60;;
22525;SDS011;11429;50.842;4.386;2022-08-01T08:43:50;3.17;;;1.95;;
22525;SDS011;11429;50.842;4.386;2022-08-01T08:46:16;2.50;;;1.52;;
22525;SDS011;11429;50.842;4.386;2022-08-01T08:48:43;4.80;;;1.58;;
22525;SDS011;11429;50.842;4.386;2022-08-01T08:51:10;2.70;;;1.65;;
22525;SDS011;11429;50.842;4.386;2022-08-01T08:53:37;21.67;;;2.17;;
22525;SDS011;11429;50.842;4.386;2022-08-01T08:56:08;13.77;;;2.15;;
22525;SDS011;11429;50.842;4.386;2022-08-01T08:58:36;2.15;;;1.52;;
22525;SDS011;11429;50.842;4.386;2022-08-01T09:01:06;2.42;;;1.50;;
22525;SDS011;11429;50.842;4.386;2022-08-01T09:03:33;2.45;;;1.63;;
22525;SDS011;11429;50.842;4.386;2022-08-01T09:06:00;5.32;;;1.88;;
22525;SDS011;11429;50.842;4.386;2022-08-01T09:08:25;5.05;;;1.80;;
22525;SDS011;11429;50.842;4.386;2022-08-01T09:10:51;6.65;;;1.90;;
22525;SDS011;11429;50.842;4.386;2022-08-01T09:13:16;6.72;;;2.00;;
22525;SDS011;11429;50.842;4.386;2022-08-01T09:15:49;4.20;;;2.00;;
22525;SDS011;11429;50.842;4.386;2022-08-01T09:18:26;3.20;;;1.50;;
22525;SDS011;11429;50.842;4.386;2022-08-01T09:23:42;7.35;;;1.80;;
22525;SDS011;11429;50.842;4.386;2022-08-01T09:26:10;9.20;;;1.38;;
22525;SDS011;11429;50.842;4.386;2022-08-01T09:28:37;2.78;;;1.48;;
22525;SDS011;11429;50.842;4.386;2022-08-01T09:31:08;2.78;;;1.40;;
22525;SDS011;11429;50.842;4.386;2022-08-01T09:33:46;10.95;;;5.13;;
22525;SDS011;11429;50.842;4.386;2022-08-01T09:36:14;5.35;;;2.10;;
22525;SDS011;11429;50.842;4.386;2022-08-01T09:38:39;5.15;;;2.55;;
22525;SDS011;11429;50.842;4.386;2022-08-01T09:41:05;3.30;;;2.00;;
22525;SDS011;11429;50.842;4.386;2022-08-01T09:43:32;5.60;;;2.42;;
22525;SDS011;11429;50.842;4.386;2022-08-01T09:45:58;5.47;;;2.00;;
22525;SDS011;11429;50.842;4.386;2022-08-01T09:48:28;5.72;;;1.70;;
22525;SDS011;11429;50.842;4.386;2022-08-01T09:50:54;6.28;;;1.88;;
22525;SDS011;11429;50.842;4.386;2022-08-01T09:53:21;4.43;;;1.75;;
22525;SDS011;11429;50.842;4.386;2022-08-01T09:55:47;3.60;;;1.98;;
22525;SDS011;11429;50.842;4.386;2022-08-01T09:58:15;3.72;;;1.80;;
22525;SDS011;11429;50.842;4.386;2022-08-01T10:00:41;4.10;;;1.52;;
22525;SDS011;11429;50.842;4.386;2022-08-01T10:05:50;1.92;;;1.02;;
22525;SDS011;11429;50.842;4.386;2022-08-01T10:08:16;1.42;;;1.00;;
22525;SDS011;11429;50.842;4.386;2022-08-01T10:10:49;2.47;;;1.10;;
22525;SDS011;11429;50.842;4.386;2022-08-01T10:13:33;3.80;;;1.17;;
22525;SDS011;11429;50.842;4.386;2022-08-01T10:16:00;4.68;;;1.00;;
22525;SDS011;11429;50.842;4.386;2022-08-01T10:18:26;1.73;;;0.85;;
22525;SDS011;11429;50.842;4.386;2022-08-01T10:20:55;2.80;;;1.05;;
22525;SDS011;11429;50.842;4.386;2022-08-01T10:23:22;2.72;;;1.00;;
22525;SDS011;11429;50.842;4.386;2022-08-01T10:25:54;3.65;;;1.42;;
22525;SDS011;11429;50.842;4.386;2022-08-01T10:28:22;3.00;;;1.35;;
22525;SDS011;11429;50.842;4.386;2022-08-01T10:30:50;2.70;;;0.93;;
22525;SDS011;11429;50.842;4.386;2022-08-01T10:33:16;2.45;;;1.48;;
22525;SDS011;11429;50.842;4.386;2022-08-01T10:35:45;4.32;;;1.45;;
22525;SDS011;11429;50.842;4.386;2022-08-01T10:38:11;4.93;;;1.05;;
22525;SDS011;11429;50.842;4.386;2022-08-01T10:40:37;3.30;;;0.70;;
22525;SDS011;11429;50.842;4.386;2022-08-01T10:43:04;2.05;;;0.90;;
22525;SDS011;11429;50.842;4.386;2022-08-01T10:45:30;3.72;;;1.45;;
22525;SDS011;11429;50.842;4.386;2022-08-01T10:48:03;4.72;;;1.00;;
22525;SDS011;11429;50.842;4.386;2022-08-01T10:50:40;2.50;;;0.90;;
22525;SDS011;11429;50.842;4.386;2022-08-01T10:53:24;3.55;;;0.90;;
22525;SDS011;11429;50.842;4.386;2022-08-01T10:55:52;4.97;;;0.90;;
22525;SDS011;11429;50.842;4.386;2022-08-01T10:58:35;3.50;;;1.10;;
22525;SDS011;11429;50.842;4.386;2022-08-01T11:08:53;2.72;;;1.10;;
22525;SDS011;11429;50.842;4.386;2022-08-01T11:11:19;3.33;;;0.98;;
22525;SDS011;11429;50.842;4.386;2022-08-01T11:14:05;4.13;;;1.02;;
22525;SDS011;11429;50.842;4.386;2022-08-01T11:16:40;4.23;;;1.10;;
22525;SDS011;11429;50.842;4.386;2022-08-01T11:19:07;3.05;;;1.30;;
22525;SDS011;11429;50.842;4.386;2022-08-01T11:27:20;4.23;;;3.20;;
22525;SDS011;11429;50.842;4.386;2022-08-01T11:32:54;4.63;;;0.93;;
22525;SDS011;11429;50.842;4.386;2022-08-01T11:35:22;1.85;;;0.85;;
22525;SDS011;11429;50.842;4.386;2022-08-01T11:37:50;4.40;;;0.88;;
22525;SDS011;11429;50.842;4.386;2022-08-01T11:40:20;2.05;;;0.82;;
22525;SDS011;11429;50.842;4.386;2022-08-01T11:43:15;2.80;;;0.80;;
22525;SDS011;11429;50.842;4.386;2022-08-01T11:45:54;4.63;;;0.90;;
22525;SDS011;11429;50.842;4.386;2022-08-01T11:48:27;5.50;;;0.95;;
22525;SDS011;11429;50.842;4.386;2022-08-01T11:50:54;2.33;;;0.85;;
22525;SDS011;11429;50.842;4.386;2022-08-01T11:53:21;3.28;;;0.80;;
22525;SDS011;11429;50.842;4.386;2022-08-01T11:55:51;1.30;;;0.75;;
22525;SDS011;11429;50.842;4.386;2022-08-01T11:58:25;10.13;;;1.13;;
22525;SDS011;11429;50.842;4.386;2022-08-01T12:00:55;7.07;;;1.20;;
22525;SDS011;11429;50.842;4.386;2022-08-01T12:03:29;4.97;;;0.93;;
22525;SDS011;11429;50.842;4.386;2022-08-01T12:06:00;6.18;;;1.20;;
22525;SDS011;11429;50.842;4.386;2022-08-01T12:08:27;2.15;;;0.80;;
22525;SDS011;11429;50.842;4.386;2022-08-01T12:10:54;4.78;;;1.05;;
22525;SDS011;11429;50.842;4.386;2022-08-01T12:13:20;3.72;;;0.80;;
22525;SDS011;11429;50.842;4.386;2022-08-01T12:15:47;2.75;;;0.90;;
22525;SDS011;11429;50.842;4.386;2022-08-01T12:18:15;1.85;;;0.60;;
22525;SDS011;11429;50.842;4.386;2022-08-01T12:20:42;2.05;;;0.70;;
22525;SDS011;11429;50.842;4.386;2022-08-01T12:23:11;5.45;;;1.23;;
22525;SDS011;11429;50.842;4.386;2022-08-01T12:25:38;1.60;;;0.75;;
22525;SDS011;11429;50.842;4.386;2022-08-01T12:28:06;3.78;;;1.10;;
22525;SDS011;11429;50.842;4.386;2022-08-01T12:30:34;3.28;;;1.17;;
22525;SDS011;11429;50.842;4.386;2022-08-01T12:33:05;4.32;;;0.90;;
22525;SDS011;11429;50.842;4.386;2022-08-01T12:35:32;6.40;;;0.85;;
22525;SDS011;11429;50.842;4.386;2022-08-01T12:38:00;3.25;;;1.10;;
22525;SDS011;11429;50.842;4.386;2022-08-01T12:40:30;4.80;;;1.30;;
22525;SDS011;11429;50.842;4.386;2022-08-01T12:43:01;6.72;;;1.15;;
22525;SDS011;11429;50.842;4.386;2022-08-01T12:45:44;2.83;;;1.08;;
22525;SDS011;11429;50.842;4.386;2022-08-01T12:48:14;3.17;;;0.95;;
22525;SDS011;11429;50.842;4.386;2022-08-01T12:50:42;3.10;;;0.80;;
22525;SDS011;11429;50.842;4.386;2022-08-01T12:53:17;4.50;;;1.02;;
22525;SDS011;11429;50.842;4.386;2022-08-01T12:55:49;3.90;;;0.90;;
22525;SDS011;11429;50.842;4.386;2022-08-01T12:58:18;9.63;;;1.08;;
22525;SDS011;11429;50.842;4.386;2022-08-01T13:00:45;3.35;;;1.08;;
22525;SDS011;11429;50.842;4.386;2022-08-01T13:03:13;2.78;;;0.98;;
22525;SDS011;11429;50.842;4.386;2022-08-01T13:08:21;11.20;;;1.70;;
22525;SDS011;11429;50.842;4.386;2022-08-01T13:11:05;5.18;;;1.50;;
22525;SDS011;11429;50.842;4.386;2022-08-01T13:13:42;4.30;;;1.38;;
22525;SDS011;11429;50.842;4.386;2022-08-01T13:16:10;5.97;;;1.40;;
22525;SDS011;11429;50.842;4.386;2022-08-01T13:18:36;6.88;;;1.60;;
22525;SDS011;11429;50.842;4.386;2022-08-01T13:21:16;22.90;;;2.47;;
22525;SDS011;11429;50.842;4.386;2022-08-01T13:26:45;4.03;;;0.90;;
22525;SDS011;11429;50.842;4.386;2022-08-01T13:31:42;6.45;;;1.10;;
22525;SDS011;11429;50.842;4.386;2022-08-01T13:34:08;5.00;;;1.20;;
22525;SDS011;11429;50.842;4.386;2022-08-01T13:36:35;7.80;;;1.15;;
22525;SDS011;11429;50.842;4.386;2022-08-01T13:39:02;1.92;;;1.00;;
22525;SDS011;11429;50.842;4.386;2022-08-01T13:41:47;9.23;;;1.65;;
22525;SDS011;11429;50.842;4.386;2022-08-01T13:44:13;8.07;;;1.10;;
22525;SDS011;11429;50.842;4.386;2022-08-01T13:46:40;4.00;;;1.00;;
22525;SDS011;11429;50.842;4.386;2022-08-01T13:49:08;3.55;;;0.98;;
22525;SDS011;11429;50.842;4.386;2022-08-01T13:51:35;9.18;;;1.27;;
22525;SDS011;11429;50.842;4.386;2022-08-01T13:54:01;9.07;;;1.17;;
22525;SDS011;11429;50.842;4.386;2022-08-01T13:56:27;5.22;;;1.73;;
22525;SDS011;11429;50.842;4.386;2022-08-01T13:58:54;3.10;;;0.88;;
22525;SDS011;11429;50.842;4.386;2022-08-01T14:01:20;2.60;;;1.02;;
22525;SDS011;11429;50.842;4.386;2022-08-01T14:03:46;3.13;;;1.73;;
22525;SDS011;11429;50.842;4.386;2022-08-01T14:06:12;5.47;;;1.20;;
22525;SDS011;11429;50.842;4.386;2022-08-01T14:08:40;10.98;;;1.23;;
22525;SDS011;11429;50.842;4.386;2022-08-01T14:11:07;3.67;;;0.80;;
22525;SDS011;11429;50.842;4.386;2022-08-01T14:13:33;5.40;;;1.00;;
22525;SDS011;11429;50.842;4.386;2022-08-01T14:15:59;4.38;;;0.80;;
22525;SDS011;11429;50.842;4.386;2022-08-01T14:18:25;6.55;;;1.70;;
22525;SDS011;11429;50.842;4.386;2022-08-01T14:20:51;3.38;;;1.50;;
22525;SDS011;11429;50.842;4.386;2022-08-01T14:23:17;5.32;;;1.10;;
22525;SDS011;11429;50.842;4.386;2022-08-01T14:25:42;1.83;;;1.23;;
22525;SDS011;11429;50.842;4.386;2022-08-01T14:28:08;8.52;;;1.50;;
22525;SDS011;11429;50.842;4.386;2022-08-01T14:30:35;1.65;;;0.90;;
22525;SDS011;11429;50.842;4.386;2022-08-01T14:33:01;2.17;;;0.80;;
22525;SDS011;11429;50.842;4.386;2022-08-01T14:35:27;3.45;;;1.17;;
22525;SDS011;11429;50.842;4.386;2022-08-01T14:37:53;6.78;;;1.10;;
22525;SDS011;11429;50.842;4.386;2022-08-01T14:40:19;4.20;;;1.23;;
22525;SDS011;11429;50.842;4.386;2022-08-01T14:42:44;2.88;;;0.95;;
22525;SDS011;11429;50.842;4.386;2022-08-01T14:45:11;7.95;;;1.33;;
22525;SDS011;11429;50.842;4.386;2022-08-01T14:47:38;2.50;;;0.90;;
22525;SDS011;11429;50.842;4.386;2022-08-01T14:50:06;3.92;;;1.00;;
22525;SDS011;11429;50.842;4.386;2022-08-01T14:52:33;4.60;;;1.17;;
22525;SDS011;11429;50.842;4.386;2022-08-01T14:55:01;5.57;;;0.98;;
22525;SDS011;11429;50.842;4.386;2022-08-01T14:57:27;5.20;;;1.00;;
22525;SDS011;11429;50.842;4.386;2022-08-01T14:59:52;3.95;;;0.95;;
22525;SDS011;11429;50.842;4.386;2022-08-01T15:02:18;2.00;;;0.70;;
22525;SDS011;11429;50.842;4.386;2022-08-01T15:04:44;8.00;;;1.30;;
22525;SDS011;11429;50.842;4.386;2022-08-01T15:07:12;3.95;;;0.90;;
22525;SDS011;11429;50.842;4.386;2022-08-01T15:09:39;4.63;;;0.90;;
22525;SDS011;11429;50.842;4.386;2022-08-01T15:12:05;3.38;;;0.82;;
22525;SDS011;11429;50.842;4.386;2022-08-01T15:14:31;6.63;;;1.30;;
22525;SDS011;11429;50.842;4.386;2022-08-01T15:17:16;4.45;;;1.27;;
22525;SDS011;11429;50.842;4.386;2022-08-01T15:20:01;6.95;;;1.00;;
22525;SDS011;11429;50.842;4.386;2022-08-01T15:22:30;2.70;;;1.00;;